logo
App data

Reflection of Mine

Reflection of Mine is a dark puzzle video game about the dissociative identity disorder. The entire game takes place in the broken mind of Lilly Witchgan and the goal is to discover who is real – Lilly herself or one of her many personalities.
Store | Hub | SteamDB | Site
Developer: Redblack Spade Publisher: Redblack Spade
Genre: Adventure, Indie
Languages: English, Russian, Simplified Chinese
Tags: Puzzle (139), Character Action Game (133), Difficult (129), Female Protagonist (124), 2D (119), Horror (112), Psychological Horror (109), Narration (107), Story Rich (105), Action (102), Anime (99), Mystery (94), Atmospheric (90), Souls-like (86), Adventure (84), Dark (80), Great Soundtrack (76), Singleplayer (70), Touch-Friendly (64), Indie (60)
Category: Single-player, Steam Achievements, Full controller support, Steam Trading Cards, Steam Cloud
Release date: Feb 24, 2017 (previously in Early Access)
Price: $7.99
Old userscore: 84% Owners: 0 .. 20,000
Followers: 3,411
Peak concurrent players yesterday: 5
Playtime total: 00:06 (average) 00:06 (median)

Steam Spy is still in beta, so expect major bugs.

Owners data:

Access restricted.

This feature is only available to users with special access rights. Sorry.

If you want to proceed, you need to register or log in first and then back Steam Spy on Patreon. Look for Indie or Pro pledge.

Don't forget to use the same email as on Steam Spy!

Audience in 2 weeks:

Access restricted.

This feature is only available to users with special access rights. Sorry.

If you want to proceed, you need to register or log in first and then back Steam Spy on Patreon. Look for Indie or Pro pledge.

Don't forget to use the same email as on Steam Spy!

Peak daily concurrent players:

CCU data courtesy of SteamDB. Used with permission.

Hourly concurrent players:

Followers over time

Access restricted.

This feature is only available to users with special access rights. Sorry.

If you want to proceed, you need to register or log in first and then back Steam Spy on Patreon. Look for Indie or Pro pledge.

Don't forget to use the same email as on Steam Spy!

Views for top 50 videos on YouTube for this game:

Games similar to this one:

# Game Release date
Price
Score rank
(Userscore / Metascore)
Owners
Players
Playtime (Median)
1 Full Bore May 6, 2014 $14.99N/A (N/A/72%)20,000 .. 50,0000%00:00 (00:00)
2 Kromaia Oct 23, 2014 $19.99N/A (N/A/68%)20,000 .. 50,0000%00:00 (00:00)
3 Imagine Me Mar 14, 2014 $2.99N/A (N/A)20,000 .. 50,0000%00:00 (00:00)
4 ReignMaker Apr 16, 2014 $14.99N/A (N/A)50,000 .. 100,0000%00:00 (00:00)
5 Montas Mar 24, 2014 $9.99N/A (N/A)0 .. 20,0000%00:00 (00:00)
6 Autocraft Sep 20, 2017 $9.99N/A (N/A)20,000 .. 50,0000%00:00 (00:00)
7 Jones On Fire Mar 27, 2015 $2.99N/A (N/A)50,000 .. 100,0000%00:00 (00:00)
8 Actual Sunlight Apr 3, 2014 $4.99N/A (N/A/77%)50,000 .. 100,0000%00:00 (00:00)
9 10 Second Ninja Mar 5, 2014 $1.99N/A (N/A/72%)50,000 .. 100,0000%00:00 (00:00)
10 Survivor Squad Nov 8, 2013 $2.99N/A (N/A)100,000 .. 200,0000%00:00 (00:00)
11 Labyrinthine Dreams May 26, 2015 $1.99N/A (N/A)20,000 .. 50,0000%00:00 (00:00)
12 Montague's Mount Nov 19, 2013 $4.99N/A (N/A/39%)20,000 .. 50,0000%00:00 (00:00)
13 T.E.C. 3001 Apr 10, 2014 N/AN/A (N/A)20,000 .. 50,0000%00:00 (00:00)
14 Ballpoint Universe - Infinite Dec 17, 2013 $3.99N/A (N/A)50,000 .. 100,0000%00:00 (00:00)
15 Munin Jun 10, 2014 $4.99N/A (N/A/68%)200,000 .. 500,0000%00:00 (00:00)
16 STARWHAL Sep 29, 2014 $11.99N/A (N/A)50,000 .. 100,0000%00:00 (00:00)
17 Rabbit Hole 3D: Steam Edition Apr 25, 2014 $2.99N/A (N/A)50,000 .. 100,0000%00:00 (00:00)
18 CrazyCars3D Jun 14, 2016 $2.99N/A (N/A)50,000 .. 100,0000%00:00 (00:00)
19 Rencounter Nov 4, 2016 $0.59N/A (N/A)20,000 .. 50,0000%00:00 (00:00)
20 MetaTron Dec 19, 2016 N/AN/A (N/A)0 .. 20,0000%00:00 (00:00)
21 10 Second Ninja X Jul 19, 2016 $9.99N/A (N/A)200,000 .. 500,0000.81%01:06 (00:22)
22 OPUS: The Day We Found Earth Apr 22, 2016 $8.99N/A (N/A)50,000 .. 100,0000%00:00 (00:00)
23 Empire of the Gods Jan 27, 2016 $1.99N/A (N/A)20,000 .. 50,0000%00:00 (00:00)
24 Wrath of Anna Apr 2, 2018 $19.99N/A (N/A)50,000 .. 100,0000%00:00 (00:00)
25 Mindless Running Feb 18, 2016 $0.99N/A (N/A)20,000 .. 50,0000%00:00 (00:00)
26 Snooker Nation Championship Apr 27, 2016 $3.99N/A (N/A)0 .. 20,0000%00:00 (00:00)
27 Mimpi Dreams Mar 22, 2016 FreeN/A (N/A)50,000 .. 100,0000%00:00 (00:00)
28 PERFECT ANGLE: The puzzle game based on optical illusions Dec 22, 2015 $9.99N/A (N/A)50,000 .. 100,0000%00:00 (00:00)
29 Amigdala Mar 28, 2016 $5.99N/A (N/A)20,000 .. 50,0000%00:00 (00:00)
30 IMSCARED Feb 3, 2016 $3.99N/A (N/A)20,000 .. 50,0000%00:00 (00:00)
31 Cube Land Arena Mar 8, 2019 $0.99N/A (N/A)0 .. 20,0000%00:00 (00:00)
32 Tiny Guardians Mar 23, 2016 $9.99N/A (N/A)0 .. 20,0000%00:00 (00:00)
33 Hero Quest: Tower Conflict Apr 13, 2016 $0.99N/A (N/A)200,000 .. 500,0000%00:00 (00:00)
34 Doodle Kingdom Jun 9, 2016 $8.99N/A (N/A)50,000 .. 100,0000%00:00 (00:00)
35 Pivvot Jul 14, 2014 $4.99N/A (N/A)0 .. 20,0000%00:00 (00:00)
36 Oblitus Feb 27, 2015 $14.99N/A (N/A/69%)20,000 .. 50,0000%00:00 (00:00)
37 TownCraft Feb 25, 2015 $9.99N/A (N/A)0 .. 20,0000%00:00 (00:00)
38 Fancy Skulls Jun 16, 2014 $8.99N/A (N/A)20,000 .. 50,0000%00:00 (00:00)
39 Dreaming Sarah Mar 12, 2015 $1.19N/A (N/A)100,000 .. 200,0000%00:00 (00:00)
40 Back to Bed Aug 6, 2014 $1.19N/A (N/A)500,000 .. 1,000,0000%00:00 (00:00)
41 Captain Forever Remix Jun 3, 2016 $9.99N/A (N/A)50,000 .. 100,0000%00:00 (00:00)
42 NEON STRUCT May 20, 2015 $17.99N/A (N/A/62%)50,000 .. 100,0000%00:00 (00:00)
43 Frederic: Evil Strikes Back May 23, 2014 $7.99N/A (N/A)50,000 .. 100,0000%00:00 (00:00)
44 Volt Apr 14, 2014 $0.99N/A (N/A)100,000 .. 200,0000%00:00 (00:00)
45 Rhythm Destruction Jun 16, 2014 $4.99N/A (N/A)50,000 .. 100,0000%00:00 (00:00)
46 Slip Apr 28, 2014 $0.99N/A (N/A)20,000 .. 50,0000%00:00 (00:00)
47 Boson X Sep 15, 2014 $2.99N/A (N/A)50,000 .. 100,0000%00:00 (00:00)
48 Three Dead Zed Jul 7, 2014 $5.99N/A (N/A)50,000 .. 100,0000%00:00 (00:00)
49 Concursion Jun 6, 2014 $4.99N/A (N/A/66%)20,000 .. 50,0000%00:00 (00:00)
50 Uriel's Chasm Sep 12, 2014 $4.99N/A (N/A)200,000 .. 500,0000%00:00 (00:00)
51 Echo of the Wilds Jun 10, 2014 $8.99N/A (N/A)0 .. 20,0000%00:00 (00:00)
52 Showdown Adventure Sep 23, 2016 $2.99N/A (N/A)0 .. 20,0000%00:00 (00:00)
53 ORCS May 20, 2016 $1.99N/A (N/A)20,000 .. 50,0000%00:00 (00:00)
54 Joana's Life Sep 1, 2016 $5.99N/A (N/A)50,000 .. 100,0000%00:00 (00:00)
55 Star Drifter Jun 1, 2016 $0.99N/A (N/A)200,000 .. 500,0000%00:00 (00:00)
56 It Comes Around - A Kinetic Novel Sep 29, 2016 $2.99N/A (N/A)20,000 .. 50,0000%00:00 (00:00)
57 Call Of The Mighty Warriors Mar 1, 2019 $0.99N/A (N/A)20,000 .. 50,0000%00:00 (00:00)
58 Starship Annihilator Sep 2, 2016 $0.99N/A (N/A)20,000 .. 50,0000%00:00 (00:00)
59 Super Duper Party Pooper Jun 6, 2016 $0.99N/A (N/A/40%)100,000 .. 200,0000%00:00 (00:00)
60 The Gleam: VR Escape the Room Oct 14, 2016 $3.99N/A (N/A)100,000 .. 200,0000%00:00 (00:00)
61 DashBored Jun 13, 2016 $4.99N/A (N/A)20,000 .. 50,0000%00:00 (00:00)
62 Trouble Witches Origin - Episode1 Daughters of Amalgam - Nov 21, 2016 $9.99N/A (N/A)0 .. 20,0000%00:00 (00:00)
63 Pixel Cup Soccer 17 Aug 4, 2016 $9.99N/A (N/A)0 .. 20,0000%00:00 (00:00)
64 NORTH Apr 27, 2016 $1.99N/A (N/A)200,000 .. 500,0000%00:00 (00:00)
65 You Deserve Aug 19, 2016 $0.99N/A (N/A)20,000 .. 50,0000%00:00 (00:00)
66 Can't Drive This Sep 25, 2016 $19.99N/A (N/A)0 .. 20,0000%00:00 (00:00)
67 Dinosaur Forest May 17, 2017 $1.99N/A (N/A)50,000 .. 100,0000%00:00 (00:00)
68 Scanner Sombre Apr 26, 2017 $5.99N/A (N/A/67%)100,000 .. 200,0000%00:00 (00:00)
69 A City Sleeps Oct 16, 2014 $9.99N/A (N/A)20,000 .. 50,0000%00:00 (00:00)
70 Traverser Jul 9, 2015 $14.99N/A (N/A/61%)0 .. 20,0000%00:00 (00:00)
71 Supreme: Pizza Empire Jan 9, 2015 $9.99N/A (N/A)0 .. 20,0000%00:00 (00:00)
72 The Deer God Feb 27, 2015 $14.99N/A (N/A/59%)20,000 .. 50,0000%00:00 (00:00)
73 Squishy the Suicidal Pig Oct 23, 2014 $5.99N/A (N/A)200,000 .. 500,0000%00:00 (00:00)
74 Pix the Cat Jan 29, 2015 $9.99N/A (N/A/77%)50,000 .. 100,0000%00:00 (00:00)
75 Ninja Pizza Girl Sep 30, 2015 $6.99N/A (N/A/82%)50,000 .. 100,0000%00:00 (00:00)
76 Tulpa Jan 29, 2015 $2.99N/A (N/A)50,000 .. 100,0000%00:00 (00:00)
77 Cavern Kings Sep 30, 2014 $9.99N/A (N/A)20,000 .. 50,0000%00:00 (00:00)
78 Mega Coin Squad Aug 15, 2014 $14.99N/A (N/A/56%)0 .. 20,0000%00:00 (00:00)
79 iO Dec 5, 2014 $4.99N/A (N/A)50,000 .. 100,0000%00:00 (00:00)
80 OTTTD Aug 6, 2014 $7.99N/A (N/A)50,000 .. 100,0000%00:00 (00:00)
81 Horizon Shift May 29, 2015 $4.99N/A (N/A)100,000 .. 200,0000%00:00 (00:00)
82 The Masterplan Jun 4, 2015 $19.99N/A (N/A/68%)100,000 .. 200,0000%00:00 (00:00)
83 Instant Dungeon! Nov 25, 2014 $1.99N/A (N/A)0 .. 20,0000%00:00 (00:00)
84 Hangeki Aug 11, 2014 $9.99N/A (N/A)0 .. 20,0000%00:00 (00:00)
85 Super Life of Pixel Dec 20, 2018 $9.99N/A (N/A)20,000 .. 50,0000%00:00 (00:00)
86 Home Jun 1, 2012 $4.99N/A (N/A/69%)200,000 .. 500,0000%00:00 (00:00)
87 SOL: Exodus Jan 25, 2012 $7.99N/A (N/A/57%)50,000 .. 100,0000%00:00 (00:00)
88 Ultratron Mar 18, 2013 $9.99N/A (N/A)100,000 .. 200,0000%00:00 (00:00)
89 Titan Attacks! Feb 3, 2012 $9.99N/A (N/A)50,000 .. 100,0000%00:00 (00:00)
90 Cargo Commander Nov 1, 2012 $1.99N/A (N/A)100,000 .. 200,0000%00:00 (00:00)
91 BIT.TRIP CORE Oct 2, 2012 $9.99N/A (N/A)20,000 .. 50,0000%00:00 (00:00)
92 Puddle Nov 9, 2012 $7.99N/A (N/A)50,000 .. 100,0000%00:00 (00:00)
93 BIT.TRIP VOID Dec 19, 2012 $9.99N/A (N/A)20,000 .. 50,0000%00:00 (00:00)
94 Papo & Yo Apr 18, 2013 $14.99N/A (N/A/70%)200,000 .. 500,0000%00:00 (00:00)
95 Tales From Space: Mutant Blobs Attack Aug 15, 2012 $9.99N/A (N/A/83%)100,000 .. 200,0009.09%00:10 (00:03)
96 Critter Crunch Sep 11, 2012 $6.99N/A (N/A)50,000 .. 100,0000%00:00 (00:00)
97 Unmechanical Aug 8, 2012 $9.99N/A (N/A/74%)100,000 .. 200,0000%00:00 (00:00)
98 BIT.TRIP BEAT Nov 2, 2010 $9.99N/A (N/A)200,000 .. 500,0000%00:00 (00:00)
99 Sugar Cube: Bittersweet Factory Nov 7, 2012 $6.99N/A (N/A)20,000 .. 50,0000%00:00 (00:00)
100 Super Splatters Jun 26, 2013 N/AN/A (N/A/73%)50,000 .. 100,0000%00:00 (00:00)
101 Party of Sin Dec 13, 2012 $5.99N/A (N/A)50,000 .. 100,0000%00:00 (00:00)
102 Ms. Splosion Man Apr 3, 2013 $9.99N/A (N/A)20,000 .. 50,0000%00:00 (00:00)
103 Project LUX Feb 2, 2018 $24.99N/A (N/A)0 .. 20,0000%00:00 (00:00)
104 Snake Pass Mar 28, 2017 $19.99N/A (N/A/71%)200,000 .. 500,0001.3%00:06 (00:02)
105 GORN Jul 18, 2019 $19.99N/A (N/A/85%)200,000 .. 500,0005%00:34 (00:11)
106 Wayout Nov 4, 2016 $0.49N/A (N/A)50,000 .. 100,0000%00:00 (00:00)
107 Open Sorcery Feb 22, 2017 $3.99N/A (N/A)0 .. 20,0000%00:00 (00:00)
108 Zolg Dec 2, 2016 $0.99N/A (N/A)20,000 .. 50,0000%00:00 (00:00)
109 Guns of Icarus Alliance Mar 31, 2017 $0.99N/A (N/A)0 .. 20,0000%00:00 (00:00)
110 Witch It May 31, 2017 $19.99N/A (N/A)200,000 .. 500,0000%00:00 (00:00)
111 The Archotek Project Apr 28, 2017 $0.99N/A (N/A)200,000 .. 500,0000%00:00 (00:00)
112 Introvert Quest Mar 15, 2017 $4.99N/A (N/A)100,000 .. 200,0000%00:00 (00:00)
113 Please, Don't Touch Anything 3D Dec 7, 2016 $9.99N/A (N/A)20,000 .. 50,0000%00:00 (00:00)
114 Distant Space Dec 20, 2016 $0.99N/A (N/A)50,000 .. 100,0000%00:00 (00:00)
115 mr.President Prologue Episode Sep 20, 2016 $0.99N/A (N/A)20,000 .. 50,0000%00:00 (00:00)
116 Child Phobia: Nightcoming Fears Dec 20, 2016 $1.99N/A (N/A)20,000 .. 50,0000%00:00 (00:00)
117 BoomTown! Deluxe Oct 14, 2016 $1.99N/A (N/A)20,000 .. 50,0000%00:00 (00:00)
118 Mistwood Heroes Dec 30, 2016 $0.99N/A (N/A)50,000 .. 100,0000%00:00 (00:00)
119 Pixel Gladiator Sep 8, 2017 $4.99N/A (N/A)20,000 .. 50,0000%00:00 (00:00)
120 An Octave Higher Mar 27, 2015 $2.39N/A (N/A)0 .. 20,0000%00:00 (00:00)
121 Bloody Streets Mar 12, 2015 $4.99N/A (N/A)20,000 .. 50,0000%00:00 (00:00)
122 NEO AQUARIUM - The King of Crustaceans - Jun 8, 2015 $1.79N/A (N/A)20,000 .. 50,0000%00:00 (00:00)
123 Chronicles of a Dark Lord: Episode 1 Tides of Fate Complete Dec 19, 2014 N/AN/A (N/A)50,000 .. 100,0000%00:00 (00:00)
124 Reign of Bullets Aug 19, 2015 $9.99N/A (N/A)0 .. 20,0000%00:00 (00:00)
125 Predestination Feb 26, 2019 $29.99N/A (N/A)0 .. 20,0000%00:00 (00:00)
126 Beyond Eyes Aug 11, 2015 $14.99N/A (N/A/60%)100,000 .. 200,0000%00:00 (00:00)
127 TIMEframe Jul 7, 2015 $5.99N/A (N/A)50,000 .. 100,0000%00:00 (00:00)
128 Orbit HD Mar 18, 2015 $1.99N/A (N/A)20,000 .. 50,0000%00:00 (00:00)
129 On A Roll 3D Feb 12, 2015 $3.99N/A (N/A)50,000 .. 100,0000%00:00 (00:00)
130 Phoenix Force Nov 13, 2014 $0.99N/A (N/A)50,000 .. 100,0000%00:00 (00:00)
131 Glorkian Warrior: The Trials Of Glork Mar 24, 2015 $1.35N/A (N/A)20,000 .. 50,0000%00:00 (00:00)
132 Marvin's Mittens Dec 17, 2014 $5.99N/A (N/A)0 .. 20,0000%00:00 (00:00)
133 Countless Rooms of Death Jan 9, 2015 $0.99N/A (N/A)20,000 .. 50,0000%00:00 (00:00)
134 Ephemerid: A Musical Adventure Feb 3, 2015 $1.99N/A (N/A)20,000 .. 50,0000%00:00 (00:00)
135 It came from space and ate our brains Mar 19, 2015 $14.99N/A (N/A)200,000 .. 500,0000%00:00 (00:00)
136 Sky Mercenaries Dec 16, 2014 $9.99N/A (N/A)20,000 .. 50,0000%00:00 (00:00)
137 Western Press Apr 21, 2016 $4.99N/A (N/A)20,000 .. 50,0000%00:00 (00:00)
138 Kiai Resonance Apr 23, 2015 $4.99N/A (N/A)20,000 .. 50,0000%00:00 (00:00)
139 Sky Rogue Aug 24, 2017 $19.99N/A (N/A)50,000 .. 100,0000%00:00 (00:00)
140 Spellsworn Mar 13, 2018 FreeN/A (N/A)100,000 .. 200,0000%00:00 (00:00)
141 Action Alien Jun 26, 2015 $4.99N/A (N/A)50,000 .. 100,0000%00:00 (00:00)
142 Luna Sky Oct 2, 2015 $12.99N/A (N/A)50,000 .. 100,0000%00:00 (00:00)
143 8Bit Fiesta - Party Game Sep 30, 2016 FreeN/A (N/A)20,000 .. 50,0000%00:00 (00:00)
144 Polyball Dec 1, 2017 $14.99N/A (N/A)100,000 .. 200,0000%00:00 (00:00)
145 Aviary Attorney Dec 21, 2015 $14.99N/A (N/A/77%)50,000 .. 100,0000%00:00 (00:00)
146 Pizza Express Jun 25, 2015 $6.99N/A (N/A)20,000 .. 50,0000%00:00 (00:00)
147 Gryphon Knight Epic Aug 20, 2015 $12.99N/A (N/A/55%)20,000 .. 50,0000%00:00 (00:00)
148 Football, Tactics & Glory Jun 1, 2018 $24.99N/A (N/A)100,000 .. 200,0000%00:00 (00:00)
149 Luckslinger Jul 16, 2015 $9.99N/A (N/A/76%)20,000 .. 50,0000%00:00 (00:00)
150 The Adventures of Mr. Bobley Jul 1, 2015 $0.99N/A (N/A)50,000 .. 100,0000%00:00 (00:00)
151 Canabalt Apr 30, 2015 $2.99N/A (N/A)20,000 .. 50,0000%00:00 (00:00)
152 Monument Jun 5, 2015 $3.99N/A (N/A)20,000 .. 50,0000%00:00 (00:00)
153 Hare In The Hat Apr 1, 2015 $1.99N/A (N/A)50,000 .. 100,0000%00:00 (00:00)
154 Intake Nov 5, 2013 $9.99N/A (N/A)20,000 .. 50,0000%00:00 (00:00)
155 FOTONICA Nov 6, 2014 $1.49N/A (N/A/71%)50,000 .. 100,0000%00:00 (00:00)
156 Super Puzzle Platformer Deluxe May 24, 2013 $7.99N/A (N/A)20,000 .. 50,0000%00:00 (00:00)
157 Gentlemen! Nov 5, 2013 $4.99N/A (N/A)20,000 .. 50,0000%00:00 (00:00)
158 Poöf Nov 8, 2013 $6.99N/A (N/A)20,000 .. 50,0000%00:00 (00:00)
159 Escape Goat 2 Mar 24, 2014 $9.99N/A (N/A/76%)50,000 .. 100,0000%00:00 (00:00)
160 The Novelist Dec 10, 2013 $4.99N/A (N/A/66%)100,000 .. 200,0000%00:00 (00:00)
161 Signal Ops Apr 2, 2013 $9.99N/A (N/A/61%)20,000 .. 50,0000%00:00 (00:00)
162 Knytt Underground Oct 25, 2013 $6.99N/A (N/A)50,000 .. 100,0000%00:00 (00:00)
163 Bad Hotel Oct 16, 2013 $4.99N/A (N/A)50,000 .. 100,0000%00:00 (00:00)
164 Escape Goat Jun 14, 2012 $4.99N/A (N/A)20,000 .. 50,0000%00:00 (00:00)
165 Godus $14.99N/A (N/A)50,000 .. 100,0000%00:00 (00:00)
166 Constant C Mar 7, 2014 $9.99N/A (N/A/60%)0 .. 20,0000%00:00 (00:00)
167 Wake $4.99N/A (N/A)0 .. 20,0000%00:00 (00:00)
168 Solar Flux Oct 24, 2013 $9.99N/A (N/A)100,000 .. 200,0000%00:00 (00:00)
169 Zack Zero Apr 29, 2013 $2.99N/A (N/A)50,000 .. 100,0000%00:00 (00:00)
170 Maia Nov 23, 2018 $24.99N/A (N/A)50,000 .. 100,0000%00:00 (00:00)
171 Heavy Gear Assault Feb 10, 2017 $39.99N/A (N/A)20,000 .. 50,0000%00:00 (00:00)
172 Blaster Shooter GunGuy! Aug 10, 2015 $1.99N/A (N/A)50,000 .. 100,0000%00:00 (00:00)
173 Cosmic Leap Mar 17, 2016 $0.99N/A (N/A)20,000 .. 50,0000%00:00 (00:00)
174 Wild Island Quest Sep 4, 2015 $1.99N/A (N/A)50,000 .. 100,0000%00:00 (00:00)
175 Godus Wars Feb 3, 2016 $14.99N/A (N/A)50,000 .. 100,0000%00:00 (00:00)
176 Kitchen Simulator 2015 Sep 2, 2015 $0.99N/A (N/A)50,000 .. 100,0000%00:00 (00:00)
177 Bell Ringer Mar 18, 2016 $6.99N/A (N/A)200,000 .. 500,0000%00:00 (00:00)
178 Press X to Not Die Oct 6, 2017 $2.99N/A (N/A)50,000 .. 100,0000%00:00 (00:00)
179 Space Moth DX Jan 22, 2016 $4.99N/A (N/A)20,000 .. 50,0000%00:00 (00:00)
180 1,000 Heads Among the Trees Dec 11, 2015 $4.99N/A (N/A)100,000 .. 200,0000%00:00 (00:00)
181 none Nov 4, 2015 N/AN/A (N/A)20,000 .. 50,0000%00:00 (00:00)
182 Dream Factory Nov 2, 2015 $9.99N/A (N/A)20,000 .. 50,0000%00:00 (00:00)
183 Earth Overclocked Dec 4, 2015 $4.99N/A (N/A)20,000 .. 50,0000%00:00 (00:00)
184 Fist Slash: Of Ultimate Fury Dec 10, 2015 $3.99N/A (N/A)0 .. 20,0000%00:00 (00:00)
185 Redemption: Eternal Quest Aug 28, 2015 $1.99N/A (N/A)100,000 .. 200,0000%00:00 (00:00)
186 Morphine Oct 28, 2015 $0.74N/A (N/A)20,000 .. 50,0000%00:00 (00:00)
187 Angry Arrows Aug 12, 2015 $4.99N/A (N/A)20,000 .. 50,0000%00:00 (00:00)

Tags over time:

Access restricted.

This feature is only available to users with special access rights. Sorry.

If you want to proceed, you need to register or log in first and then back Steam Spy on Patreon. Look for Indie or Pro pledge.

Don't forget to use the same email as on Steam Spy!

Owners of this game also own:

Access restricted.

This feature is only available to users with special access rights. Sorry.

If you want to proceed, you need to register or log in first and then back Steam Spy on Patreon. Look for Indie or Pro pledge.

Don't forget to use the same email as on Steam Spy!

Playtime distribution:

Access restricted.

This feature is only available to users with special access rights. Sorry.

If you want to proceed, you need to register or log in first and then back Steam Spy on Patreon. Look for Indie or Pro pledge.

Don't forget to use the same email as on Steam Spy!

Playtime (2 weeks):

Access restricted.

This feature is only available to users with special access rights. Sorry.

If you want to proceed, you need to register or log in first and then back Steam Spy on Patreon. Look for Indie or Pro pledge.

Don't forget to use the same email as on Steam Spy!

User reviews:

Login required.

Please register or log in to see this information.